Startpagina
METAR-TAF:

METAR-TAF

Vliegvelden :

Luchthaven Damascus

Damascus, Syrië

breedte: 33-25N, lengte: 036-31E, hoogte: 608 m

Actueel weer

Dit bericht is 18 minuten geleden gemaakt, om 02:00 UTC
Wind 14 kt uit het zuidzuidwesten
Temperatuur 5°C
Vochtigheid 87%
Druk 1019 hPa
Zicht: 1500 m
Verspreide wolken op 3000 ft
nevel

METAR: OSDI 190200Z 21014KT 1500 BR SCT030 05/03 Q1019

Tijdstip: 04:18 (02:18 UTC)

Verwachting

Dit bericht is 4 uur en het 18 minuten geleden gemaakt, om 22:00 UTC
Verwachting geldig van 19 om 00 UTC tot 20 om 06 UTC
Wind 3 kt uit variabele richting
Zicht: 3000 m
nevel
Tijdelijke
van 19 om 01 UTC tot 19 om 07 UTC
Zicht: 0200 m
Verspreide wolken op 700 ft
mist
Wijzigt naar
van 19 om 08 UTC tot 19 om 10 UTC
Wind 10 kt uit het zuidwesten
Zicht: 8000 m
Weinig wolken op 3000 ft

TAF: OSDI 182200Z 1900/2006 VRB03KT 3000 BR TEMPO 1901/1907 0200 FG SCT007 BECMG 1908/1910 22010KT 8000 FEW030

Waarnemingen en weersverwachtingen van meer dan 4000 vliegvelden (METAR en TAF).

De beschikbare stations zijn de gele en rode punten op de kaart.

Ga met uw muis naar het station om de naam te zien.

Klik dan om waarnemingen en weersverwachtingen te zien.

kaart wijzigen: klik op de groene knoppen met een zwart kruis om in te zoomen, op de groene knop met een streepje om uit te zoomen of op de groene pijlen voor aangrenzende kaarten.


METAR-TAF: